sensor_id;sensor_type;location;lat;lon;timestamp;P1;durP1;ratioP1;P2;durP2;ratioP2
85303;SDS011;75708;47.930;13.782;2024-02-23T00:01:43;15.07;;;7.53;;
85303;SDS011;75708;47.930;13.782;2024-02-23T00:04:09;15.85;;;7.15;;
85303;SDS011;75708;47.930;13.782;2024-02-23T00:06:35;12.18;;;6.65;;
85303;SDS011;75708;47.930;13.782;2024-02-23T00:09:00;12.57;;;7.00;;
85303;SDS011;75708;47.930;13.782;2024-02-23T00:11:26;13.15;;;7.68;;
85303;SDS011;75708;47.930;13.782;2024-02-23T00:13:53;13.65;;;8.25;;
85303;SDS011;75708;47.930;13.782;2024-02-23T00:16:19;15.98;;;8.45;;
85303;SDS011;75708;47.930;13.782;2024-02-23T00:18:44;12.63;;;7.32;;
85303;SDS011;75708;47.930;13.782;2024-02-23T00:21:10;14.68;;;7.22;;
85303;SDS011;75708;47.930;13.782;2024-02-23T00:23:35;18.40;;;7.30;;
85303;SDS011;75708;47.930;13.782;2024-02-23T00:26:01;13.65;;;7.47;;
85303;SDS011;75708;47.930;13.782;2024-02-23T00:28:27;15.23;;;7.63;;
85303;SDS011;75708;47.930;13.782;2024-02-23T00:30:52;13.30;;;6.57;;
85303;SDS011;75708;47.930;13.782;2024-02-23T00:33:18;13.02;;;7.00;;
85303;SDS011;75708;47.930;13.782;2024-02-23T00:35:43;15.32;;;7.40;;
85303;SDS011;75708;47.930;13.782;2024-02-23T00:38:09;14.13;;;6.90;;
85303;SDS011;75708;47.930;13.782;2024-02-23T00:40:35;15.85;;;7.60;;
85303;SDS011;75708;47.930;13.782;2024-02-23T00:43:00;15.48;;;6.70;;
85303;SDS011;75708;47.930;13.782;2024-02-23T00:45:26;22.83;;;7.38;;
85303;SDS011;75708;47.930;13.782;2024-02-23T00:47:51;20.48;;;8.63;;
85303;SDS011;75708;47.930;13.782;2024-02-23T00:50:17;19.40;;;7.97;;
85303;SDS011;75708;47.930;13.782;2024-02-23T00:52:43;13.93;;;8.18;;
85303;SDS011;75708;47.930;13.782;2024-02-23T00:55:08;13.13;;;8.05;;
85303;SDS011;75708;47.930;13.782;2024-02-23T00:57:34;13.82;;;7.93;;
85303;SDS011;75708;47.930;13.782;2024-02-23T01:00:01;13.07;;;7.53;;
85303;SDS011;75708;47.930;13.782;2024-02-23T01:02:28;13.23;;;7.68;;
85303;SDS011;75708;47.930;13.782;2024-02-23T01:04:54;16.25;;;7.93;;
85303;SDS011;75708;47.930;13.782;2024-02-23T01:07:22;17.52;;;8.48;;
85303;SDS011;75708;47.930;13.782;2024-02-23T01:09:48;14.07;;;7.85;;
85303;SDS011;75708;47.930;13.782;2024-02-23T01:12:13;15.60;;;7.93;;
85303;SDS011;75708;47.930;13.782;2024-02-23T01:14:40;16.40;;;7.90;;
85303;SDS011;75708;47.930;13.782;2024-02-23T01:17:06;21.35;;;9.00;;
85303;SDS011;75708;47.930;13.782;2024-02-23T01:19:31;13.35;;;7.93;;
85303;SDS011;75708;47.930;13.782;2024-02-23T01:21:57;13.73;;;7.43;;
85303;SDS011;75708;47.930;13.782;2024-02-23T01:24:28;16.80;;;5.05;;
85303;SDS011;75708;47.930;13.782;2024-02-23T01:26:55;12.60;;;7.88;;
85303;SDS011;75708;47.930;13.782;2024-02-23T01:29:21;15.13;;;6.72;;
85303;SDS011;75708;47.930;13.782;2024-02-23T01:31:47;13.27;;;7.60;;
85303;SDS011;75708;47.930;13.782;2024-02-23T01:34:13;15.15;;;7.70;;
85303;SDS011;75708;47.930;13.782;2024-02-23T01:36:39;17.65;;;7.93;;
85303;SDS011;75708;47.930;13.782;2024-02-23T01:39:05;18.08;;;7.28;;
85303;SDS011;75708;47.930;13.782;2024-02-23T01:41:31;5.28;;;1.90;;
85303;SDS011;75708;47.930;13.782;2024-02-23T01:43:57;3.20;;;1.52;;
85303;SDS011;75708;47.930;13.782;2024-02-23T01:46:23;0.68;;;0.40;;
85303;SDS011;75708;47.930;13.782;2024-02-23T01:48:48;0.68;;;0.30;;
85303;SDS011;75708;47.930;13.782;2024-02-23T01:52:00;1.92;;;0.60;;
85303;SDS011;75708;47.930;13.782;2024-02-23T01:54:27;0.88;;;0.40;;
85303;SDS011;75708;47.930;13.782;2024-02-23T01:56:54;0.50;;;0.20;;
85303;SDS011;75708;47.930;13.782;2024-02-23T01:59:21;0.40;;;0.30;;
85303;SDS011;75708;47.930;13.782;2024-02-23T02:01:48;2.47;;;0.50;;
85303;SDS011;75708;47.930;13.782;2024-02-23T02:04:14;0.70;;;0.40;;
85303;SDS011;75708;47.930;13.782;2024-02-23T02:06:39;0.52;;;0.20;;
85303;SDS011;75708;47.930;13.782;2024-02-23T02:09:05;0.32;;;0.17;;
85303;SDS011;75708;47.930;13.782;2024-02-23T02:11:30;0.73;;;0.30;;
85303;SDS011;75708;47.930;13.782;2024-02-23T02:13:56;0.45;;;0.20;;
85303;SDS011;75708;47.930;13.782;2024-02-23T02:16:22;0.40;;;0.20;;
85303;SDS011;75708;47.930;13.782;2024-02-23T02:18:47;0.20;;;0.10;;
85303;SDS011;75708;47.930;13.782;2024-02-23T02:21:13;0.20;;;0.10;;
85303;SDS011;75708;47.930;13.782;2024-02-23T02:23:38;0.52;;;0.17;;
85303;SDS011;75708;47.930;13.782;2024-02-23T02:26:04;0.52;;;0.20;;
85303;SDS011;75708;47.930;13.782;2024-02-23T02:28:30;0.93;;;0.10;;
85303;SDS011;75708;47.930;13.782;2024-02-23T02:30:55;0.93;;;0.20;;
85303;SDS011;75708;47.930;13.782;2024-02-23T02:33:21;0.00;;;0.00;;
85303;SDS011;75708;47.930;13.782;2024-02-23T02:35:47;0.25;;;0.13;;
85303;SDS011;75708;47.930;13.782;2024-02-23T02:38:14;0.40;;;0.20;;
85303;SDS011;75708;47.930;13.782;2024-02-23T02:40:40;0.35;;;0.00;;
85303;SDS011;75708;47.930;13.782;2024-02-23T02:43:06;0.30;;;0.10;;
85303;SDS011;75708;47.930;13.782;2024-02-23T02:45:32;0.20;;;0.10;;
85303;SDS011;75708;47.930;13.782;2024-02-23T02:47:57;0.30;;;0.10;;
85303;SDS011;75708;47.930;13.782;2024-02-23T02:50:25;0.38;;;0.13;;
85303;SDS011;75708;47.930;13.782;2024-02-23T02:52:50;0.10;;;0.05;;
85303;SDS011;75708;47.930;13.782;2024-02-23T02:55:16;0.28;;;0.10;;
85303;SDS011;75708;47.930;13.782;2024-02-23T02:57:41;0.17;;;0.00;;
85303;SDS011;75708;47.930;13.782;2024-02-23T03:00:09;0.20;;;0.10;;
85303;SDS011;75708;47.930;13.782;2024-02-23T03:02:35;0.13;;;0.00;;
85303;SDS011;75708;47.930;13.782;2024-02-23T03:05:01;0.20;;;0.00;;
85303;SDS011;75708;47.930;13.782;2024-02-23T03:07:27;0.00;;;0.00;;
85303;SDS011;75708;47.930;13.782;2024-02-23T03:09:53;0.20;;;0.10;;
85303;SDS011;75708;47.930;13.782;2024-02-23T03:12:19;0.10;;;0.00;;
85303;SDS011;75708;47.930;13.782;2024-02-23T03:14:45;0.25;;;0.10;;
85303;SDS011;75708;47.930;13.782;2024-02-23T03:17:11;0.00;;;0.00;;
85303;SDS011;75708;47.930;13.782;2024-02-23T03:19:36;1.60;;;0.25;;
85303;SDS011;75708;47.930;13.782;2024-02-23T03:22:03;0.10;;;0.00;;
85303;SDS011;75708;47.930;13.782;2024-02-23T03:24:28;1.23;;;0.00;;
85303;SDS011;75708;47.930;13.782;2024-02-23T03:26:54;0.10;;;0.00;;
85303;SDS011;75708;47.930;13.782;2024-02-23T03:29:20;0.10;;;0.00;;
85303;SDS011;75708;47.930;13.782;2024-02-23T03:31:49;0.03;;;0.00;;
85303;SDS011;75708;47.930;13.782;2024-02-23T03:34:15;0.00;;;0.00;;
85303;SDS011;75708;47.930;13.782;2024-02-23T03:36:40;0.17;;;0.10;;
85303;SDS011;75708;47.930;13.782;2024-02-23T03:39:06;0.85;;;0.00;;
85303;SDS011;75708;47.930;13.782;2024-02-23T03:41:31;0.00;;;0.00;;
85303;SDS011;75708;47.930;13.782;2024-02-23T03:43:57;0.00;;;0.00;;
85303;SDS011;75708;47.930;13.782;2024-02-23T03:46:24;0.50;;;0.00;;
85303;SDS011;75708;47.930;13.782;2024-02-23T03:48:49;0.00;;;0.00;;
85303;SDS011;75708;47.930;13.782;2024-02-23T03:51:15;0.20;;;0.00;;
85303;SDS011;75708;47.930;13.782;2024-02-23T03:53:41;0.43;;;0.05;;
85303;SDS011;75708;47.930;13.782;2024-02-23T03:56:07;0.00;;;0.00;;
85303;SDS011;75708;47.930;13.782;2024-02-23T03:58:33;1.25;;;0.10;;
85303;SDS011;75708;47.930;13.782;2024-02-23T04:00:59;0.10;;;0.10;;
85303;SDS011;75708;47.930;13.782;2024-02-23T04:03:24;0.13;;;0.00;;
85303;SDS011;75708;47.930;13.782;2024-02-23T04:05:50;0.47;;;0.30;;
85303;SDS011;75708;47.930;13.782;2024-02-23T04:08:15;0.17;;;0.00;;
85303;SDS011;75708;47.930;13.782;2024-02-23T04:10:41;0.30;;;0.10;;
85303;SDS011;75708;47.930;13.782;2024-02-23T04:13:06;0.15;;;0.10;;
85303;SDS011;75708;47.930;13.782;2024-02-23T04:15:32;0.10;;;0.00;;
85303;SDS011;75708;47.930;13.782;2024-02-23T04:17:57;0.17;;;0.10;;
85303;SDS011;75708;47.930;13.782;2024-02-23T04:20:23;0.10;;;0.00;;
85303;SDS011;75708;47.930;13.782;2024-02-23T04:22:48;0.00;;;0.00;;
85303;SDS011;75708;47.930;13.782;2024-02-23T04:25:14;0.00;;;0.00;;
85303;SDS011;75708;47.930;13.782;2024-02-23T04:27:39;0.20;;;0.00;;
85303;SDS011;75708;47.930;13.782;2024-02-23T04:30:05;0.05;;;0.00;;
85303;SDS011;75708;47.930;13.782;2024-02-23T04:32:31;0.73;;;0.00;;
85303;SDS011;75708;47.930;13.782;2024-02-23T04:34:57;2.92;;;0.13;;
85303;SDS011;75708;47.930;13.782;2024-02-23T04:37:22;0.05;;;0.00;;
85303;SDS011;75708;47.930;13.782;2024-02-23T04:39:48;0.00;;;0.00;;
85303;SDS011;75708;47.930;13.782;2024-02-23T04:42:13;0.00;;;0.00;;
85303;SDS011;75708;47.930;13.782;2024-02-23T04:44:41;0.00;;;0.00;;
85303;SDS011;75708;47.930;13.782;2024-02-23T04:47:07;0.10;;;0.00;;
85303;SDS011;75708;47.930;13.782;2024-02-23T04:49:32;0.00;;;0.00;;
85303;SDS011;75708;47.930;13.782;2024-02-23T04:51:58;0.50;;;0.28;;
85303;SDS011;75708;47.930;13.782;2024-02-23T04:54:23;0.00;;;0.00;;
85303;SDS011;75708;47.930;13.782;2024-02-23T04:56:49;0.10;;;0.08;;
85303;SDS011;75708;47.930;13.782;2024-02-23T04:59:15;0.03;;;0.00;;
85303;SDS011;75708;47.930;13.782;2024-02-23T05:01:41;0.35;;;0.00;;
85303;SDS011;75708;47.930;13.782;2024-02-23T05:04:07;0.68;;;0.10;;
85303;SDS011;75708;47.930;13.782;2024-02-23T05:06:33;0.00;;;0.00;;
85303;SDS011;75708;47.930;13.782;2024-02-23T05:08:58;0.10;;;0.00;;
85303;SDS011;75708;47.930;13.782;2024-02-23T05:11:24;1.48;;;0.10;;
85303;SDS011;75708;47.930;13.782;2024-02-23T05:13:50;0.05;;;0.05;;
85303;SDS011;75708;47.930;13.782;2024-02-23T05:16:15;0.00;;;0.00;;
85303;SDS011;75708;47.930;13.782;2024-02-23T05:18:41;0.00;;;0.00;;
85303;SDS011;75708;47.930;13.782;2024-02-23T05:21:07;1.55;;;0.00;;
85303;SDS011;75708;47.930;13.782;2024-02-23T05:23:33;0.00;;;0.00;;
85303;SDS011;75708;47.930;13.782;2024-02-23T05:25:58;0.22;;;0.00;;
85303;SDS011;75708;47.930;13.782;2024-02-23T05:28:24;0.00;;;0.00;;
85303;SDS011;75708;47.930;13.782;2024-02-23T05:30:49;1.42;;;0.00;;
85303;SDS011;75708;47.930;13.782;2024-02-23T05:33:16;0.05;;;0.00;;
85303;SDS011;75708;47.930;13.782;2024-02-23T05:35:41;0.43;;;0.05;;
85303;SDS011;75708;47.930;13.782;2024-02-23T05:38:07;0.45;;;0.10;;
85303;SDS011;75708;47.930;13.782;2024-02-23T05:40:32;0.00;;;0.00;;
85303;SDS011;75708;47.930;13.782;2024-02-23T05:42:58;0.30;;;0.05;;
85303;SDS011;75708;47.930;13.782;2024-02-23T05:45:23;0.13;;;0.00;;
85303;SDS011;75708;47.930;13.782;2024-02-23T05:47:49;0.52;;;0.00;;
85303;SDS011;75708;47.930;13.782;2024-02-23T05:50:15;0.10;;;0.00;;
85303;SDS011;75708;47.930;13.782;2024-02-23T05:52:40;0.15;;;0.00;;
85303;SDS011;75708;47.930;13.782;2024-02-23T05:55:06;0.45;;;0.10;;
85303;SDS011;75708;47.930;13.782;2024-02-23T05:57:32;1.15;;;0.20;;
85303;SDS011;75708;47.930;13.782;2024-02-23T05:59:59;1.90;;;0.40;;
85303;SDS011;75708;47.930;13.782;2024-02-23T06:02:25;0.60;;;0.22;;
85303;SDS011;75708;47.930;13.782;2024-02-23T06:04:50;0.45;;;0.10;;
85303;SDS011;75708;47.930;13.782;2024-02-23T06:07:16;0.03;;;0.00;;
85303;SDS011;75708;47.930;13.782;2024-02-23T06:09:42;0.00;;;0.00;;
85303;SDS011;75708;47.930;13.782;2024-02-23T06:12:08;0.43;;;0.15;;
85303;SDS011;75708;47.930;13.782;2024-02-23T06:14:34;0.20;;;0.10;;
85303;SDS011;75708;47.930;13.782;2024-02-23T06:17:00;0.30;;;0.10;;
85303;SDS011;75708;47.930;13.782;2024-02-23T06:19:26;0.40;;;0.15;;
85303;SDS011;75708;47.930;13.782;2024-02-23T06:21:51;0.52;;;0.22;;
85303;SDS011;75708;47.930;13.782;2024-02-23T06:24:17;0.55;;;0.10;;
85303;SDS011;75708;47.930;13.782;2024-02-23T06:26:43;0.32;;;0.00;;
85303;SDS011;75708;47.930;13.782;2024-02-23T06:29:08;0.52;;;0.10;;
85303;SDS011;75708;47.930;13.782;2024-02-23T06:31:39;0.30;;;0.10;;
85303;SDS011;75708;47.930;13.782;2024-02-23T06:36:31;1.08;;;0.28;;
85303;SDS011;75708;47.930;13.782;2024-02-23T06:38:57;0.80;;;0.30;;
85303;SDS011;75708;47.930;13.782;2024-02-23T06:41:22;0.57;;;0.30;;
85303;SDS011;75708;47.930;13.782;2024-02-23T06:43:48;0.60;;;0.15;;
85303;SDS011;75708;47.930;13.782;2024-02-23T06:46:13;4.50;;;0.50;;
85303;SDS011;75708;47.930;13.782;2024-02-23T06:48:39;0.40;;;0.10;;
85303;SDS011;75708;47.930;13.782;2024-02-23T06:51:05;1.40;;;0.30;;
85303;SDS011;75708;47.930;13.782;2024-02-23T06:53:34;5.13;;;0.60;;
85303;SDS011;75708;47.930;13.782;2024-02-23T06:56:00;0.80;;;0.25;;
85303;SDS011;75708;47.930;13.782;2024-02-23T06:58:26;2.17;;;0.20;;
85303;SDS011;75708;47.930;13.782;2024-02-23T07:00:52;2.58;;;0.20;;
85303;SDS011;75708;47.930;13.782;2024-02-23T07:03:17;2.03;;;0.43;;
85303;SDS011;75708;47.930;13.782;2024-02-23T07:05:43;0.30;;;0.20;;
85303;SDS011;75708;47.930;13.782;2024-02-23T07:08:10;3.65;;;0.45;;
85303;SDS011;75708;47.930;13.782;2024-02-23T07:10:36;6.70;;;0.80;;
85303;SDS011;75708;47.930;13.782;2024-02-23T07:13:01;1.40;;;0.52;;
85303;SDS011;75708;47.930;13.782;2024-02-23T07:15:27;1.33;;;0.40;;
85303;SDS011;75708;47.930;13.782;2024-02-23T07:17:52;4.68;;;0.57;;
85303;SDS011;75708;47.930;13.782;2024-02-23T07:20:18;1.13;;;0.40;;
85303;SDS011;75708;47.930;13.782;2024-02-23T07:22:46;2.90;;;0.32;;
85303;SDS011;75708;47.930;13.782;2024-02-23T07:25:16;3.22;;;0.40;;
85303;SDS011;75708;47.930;13.782;2024-02-23T07:27:44;2.10;;;0.28;;
85303;SDS011;75708;47.930;13.782;2024-02-23T07:30:10;2.60;;;0.60;;
85303;SDS011;75708;47.930;13.782;2024-02-23T07:32:36;7.70;;;1.00;;
85303;SDS011;75708;47.930;13.782;2024-02-23T07:35:02;1.40;;;0.50;;
85303;SDS011;75708;47.930;13.782;2024-02-23T07:37:29;1.30;;;0.57;;
85303;SDS011;75708;47.930;13.782;2024-02-23T07:39:54;5.05;;;0.80;;
85303;SDS011;75708;47.930;13.782;2024-02-23T07:42:20;2.20;;;0.60;;
85303;SDS011;75708;47.930;13.782;2024-02-23T07:44:45;1.52;;;0.60;;
85303;SDS011;75708;47.930;13.782;2024-02-23T07:47:11;0.95;;;0.45;;
85303;SDS011;75708;47.930;13.782;2024-02-23T07:49:37;1.23;;;0.40;;
85303;SDS011;75708;47.930;13.782;2024-02-23T07:52:03;2.28;;;0.68;;
85303;SDS011;75708;47.930;13.782;2024-02-23T07:54:29;0.77;;;0.40;;
85303;SDS011;75708;47.930;13.782;2024-02-23T07:56:54;2.92;;;0.50;;
85303;SDS011;75708;47.930;13.782;2024-02-23T07:59:20;1.48;;;0.63;;
85303;SDS011;75708;47.930;13.782;2024-02-23T08:01:45;0.77;;;0.30;;
85303;SDS011;75708;47.930;13.782;2024-02-23T08:04:11;1.70;;;0.50;;
85303;SDS011;75708;47.930;13.782;2024-02-23T08:06:38;7.47;;;1.17;;
85303;SDS011;75708;47.930;13.782;2024-02-23T08:09:04;9.57;;;0.82;;
85303;SDS011;75708;47.930;13.782;2024-02-23T08:11:30;4.25;;;0.68;;
85303;SDS011;75708;47.930;13.782;2024-02-23T08:13:55;6.45;;;0.60;;
85303;SDS011;75708;47.930;13.782;2024-02-23T08:16:21;11.38;;;0.90;;
85303;SDS011;75708;47.930;13.782;2024-02-23T08:18:46;5.13;;;1.05;;
85303;SDS011;75708;47.930;13.782;2024-02-23T08:21:12;2.38;;;0.30;;
85303;SDS011;75708;47.930;13.782;2024-02-23T08:23:38;4.13;;;0.57;;
85303;SDS011;75708;47.930;13.782;2024-02-23T08:26:03;0.82;;;0.40;;
85303;SDS011;75708;47.930;13.782;2024-02-23T08:28:29;3.10;;;0.52;;
85303;SDS011;75708;47.930;13.782;2024-02-23T08:30:54;3.83;;;0.38;;
85303;SDS011;75708;47.930;13.782;2024-02-23T08:33:20;2.60;;;0.30;;
85303;SDS011;75708;47.930;13.782;2024-02-23T08:35:45;0.98;;;0.32;;
85303;SDS011;75708;47.930;13.782;2024-02-23T08:38:13;2.10;;;0.40;;
85303;SDS011;75708;47.930;13.782;2024-02-23T08:40:39;1.30;;;0.22;;
85303;SDS011;75708;47.930;13.782;2024-02-23T08:43:04;2.25;;;0.93;;
85303;SDS011;75708;47.930;13.782;2024-02-23T08:45:30;2.53;;;0.40;;
85303;SDS011;75708;47.930;13.782;2024-02-23T08:47:56;0.80;;;0.50;;
85303;SDS011;75708;47.930;13.782;2024-02-23T08:50:21;2.25;;;0.85;;
85303;SDS011;75708;47.930;13.782;2024-02-23T08:52:47;1.02;;;0.50;;
85303;SDS011;75708;47.930;13.782;2024-02-23T08:55:12;1.83;;;0.60;;
85303;SDS011;75708;47.930;13.782;2024-02-23T08:57:38;0.52;;;0.38;;
85303;SDS011;75708;47.930;13.782;2024-02-23T09:00:04;0.63;;;0.25;;
85303;SDS011;75708;47.930;13.782;2024-02-23T09:02:30;1.30;;;0.85;;
85303;SDS011;75708;47.930;13.782;2024-02-23T09:04:57;7.97;;;5.63;;
85303;SDS011;75708;47.930;13.782;2024-02-23T09:07:23;13.55;;;10.75;;
85303;SDS011;75708;47.930;13.782;2024-02-23T09:09:49;9.00;;;5.85;;
85303;SDS011;75708;47.930;13.782;2024-02-23T09:12:15;3.47;;;1.55;;
85303;SDS011;75708;47.930;13.782;2024-02-23T09:14:44;4.63;;;3.63;;
85303;SDS011;75708;47.930;13.782;2024-02-23T09:17:10;2.05;;;1.02;;
85303;SDS011;75708;47.930;13.782;2024-02-23T09:19:36;1.92;;;0.95;;
85303;SDS011;75708;47.930;13.782;2024-02-23T09:22:02;13.77;;;11.18;;
85303;SDS011;75708;47.930;13.782;2024-02-23T09:24:28;3.85;;;3.33;;
85303;SDS011;75708;47.930;13.782;2024-02-23T09:26:54;4.68;;;3.08;;
85303;SDS011;75708;47.930;13.782;2024-02-23T09:29:19;3.97;;;3.28;;
85303;SDS011;75708;47.930;13.782;2024-02-23T09:31:45;1.08;;;0.52;;
85303;SDS011;75708;47.930;13.782;2024-02-23T09:34:11;0.63;;;0.30;;
85303;SDS011;75708;47.930;13.782;2024-02-23T09:36:36;0.77;;;0.30;;
85303;SDS011;75708;47.930;13.782;2024-02-23T09:39:02;0.98;;;0.40;;
85303;SDS011;75708;47.930;13.782;2024-02-23T09:41:29;0.30;;;0.10;;
85303;SDS011;75708;47.930;13.782;2024-02-23T09:43:58;1.58;;;0.43;;
85303;SDS011;75708;47.930;13.782;2024-02-23T09:46:25;0.88;;;0.50;;
85303;SDS011;75708;47.930;13.782;2024-02-23T09:48:51;1.77;;;0.50;;
85303;SDS011;75708;47.930;13.782;2024-02-23T09:51:18;4.38;;;2.00;;
85303;SDS011;75708;47.930;13.782;2024-02-23T09:53:45;4.28;;;2.70;;
85303;SDS011;75708;47.930;13.782;2024-02-23T09:56:14;2.55;;;0.75;;
85303;SDS011;75708;47.930;13.782;2024-02-23T09:58:42;2.40;;;2.20;;
85303;SDS011;75708;47.930;13.782;2024-02-23T10:01:09;2.17;;;1.73;;
85303;SDS011;75708;47.930;13.782;2024-02-23T10:03:37;2.30;;;1.52;;
85303;SDS011;75708;47.930;13.782;2024-02-23T10:06:03;6.85;;;4.90;;
85303;SDS011;75708;47.930;13.782;2024-02-23T10:08:30;1.88;;;1.20;;
85303;SDS011;75708;47.930;13.782;2024-02-23T10:10:55;4.80;;;1.70;;
85303;SDS011;75708;47.930;13.782;2024-02-23T10:13:22;3.28;;;1.23;;
85303;SDS011;75708;47.930;13.782;2024-02-23T10:18:17;2.97;;;2.15;;
85303;SDS011;75708;47.930;13.782;2024-02-23T10:20:43;1.83;;;1.10;;
85303;SDS011;75708;47.930;13.782;2024-02-23T10:23:09;3.13;;;1.20;;
85303;SDS011;75708;47.930;13.782;2024-02-23T10:25:35;1.55;;;1.00;;
85303;SDS011;75708;47.930;13.782;2024-02-23T10:28:01;2.55;;;1.20;;
85303;SDS011;75708;47.930;13.782;2024-02-23T10:30:27;1.40;;;1.00;;
85303;SDS011;75708;47.930;13.782;2024-02-23T10:32:55;2.78;;;1.10;;
85303;SDS011;75708;47.930;13.782;2024-02-23T10:35:21;1.23;;;0.52;;
85303;SDS011;75708;47.930;13.782;2024-02-23T10:37:48;0.80;;;0.40;;
85303;SDS011;75708;47.930;13.782;2024-02-23T10:40:18;0.50;;;0.30;;
85303;SDS011;75708;47.930;13.782;2024-02-23T10:42:45;0.52;;;0.20;;
85303;SDS011;75708;47.930;13.782;2024-02-23T10:45:19;1.90;;;0.30;;
85303;SDS011;75708;47.930;13.782;2024-02-23T10:47:47;0.43;;;0.20;;
85303;SDS011;75708;47.930;13.782;2024-02-23T10:50:14;0.50;;;0.20;;
85303;SDS011;75708;47.930;13.782;2024-02-23T10:52:41;2.05;;;0.22;;
85303;SDS011;75708;47.930;13.782;2024-02-23T10:55:10;0.10;;;0.10;;
85303;SDS011;75708;47.930;13.782;2024-02-23T10:57:36;1.58;;;0.43;;
85303;SDS011;75708;47.930;13.782;2024-02-23T11:00:02;1.10;;;0.50;;
85303;SDS011;75708;47.930;13.782;2024-02-23T11:02:36;0.47;;;0.20;;
85303;SDS011;75708;47.930;13.782;2024-02-23T11:05:05;0.55;;;0.20;;
85303;SDS011;75708;47.930;13.782;2024-02-23T11:07:37;0.57;;;0.20;;
85303;SDS011;75708;47.930;13.782;2024-02-23T11:10:04;2.22;;;0.40;;
85303;SDS011;75708;47.930;13.782;2024-02-23T11:12:30;0.20;;;0.10;;
85303;SDS011;75708;47.930;13.782;2024-02-23T11:14:59;0.40;;;0.10;;
85303;SDS011;75708;47.930;13.782;2024-02-23T11:17:29;1.65;;;0.50;;
85303;SDS011;75708;47.930;13.782;2024-02-23T11:19:56;3.58;;;0.30;;
85303;SDS011;75708;47.930;13.782;2024-02-23T11:22:25;5.38;;;0.93;;
85303;SDS011;75708;47.930;13.782;2024-02-23T11:25:03;0.60;;;0.38;;
85303;SDS011;75708;47.930;13.782;2024-02-23T11:27:40;1.17;;;0.45;;
85303;SDS011;75708;47.930;13.782;2024-02-23T11:30:08;0.65;;;0.15;;
85303;SDS011;75708;47.930;13.782;2024-02-23T11:32:38;0.95;;;0.10;;
85303;SDS011;75708;47.930;13.782;2024-02-23T11:35:15;1.88;;;1.40;;
85303;SDS011;75708;47.930;13.782;2024-02-23T11:38:01;1.77;;;1.17;;
85303;SDS011;75708;47.930;13.782;2024-02-23T11:40:30;0.55;;;0.30;;
85303;SDS011;75708;47.930;13.782;2024-02-23T11:42:57;2.28;;;0.20;;
85303;SDS011;75708;47.930;13.782;2024-02-23T11:45:25;2.30;;;0.70;;
85303;SDS011;75708;47.930;13.782;2024-02-23T11:47:52;1.05;;;0.30;;
85303;SDS011;75708;47.930;13.782;2024-02-23T11:50:18;0.65;;;0.20;;
85303;SDS011;75708;47.930;13.782;2024-02-23T11:52:47;2.28;;;0.20;;
85303;SDS011;75708;47.930;13.782;2024-02-23T11:55:12;0.20;;;0.10;;
85303;SDS011;75708;47.930;13.782;2024-02-23T11:57:44;0.20;;;0.10;;
85303;SDS011;75708;47.930;13.782;2024-02-23T12:00:10;1.95;;;0.57;;
85303;SDS011;75708;47.930;13.782;2024-02-23T12:02:36;0.63;;;0.20;;
85303;SDS011;75708;47.930;13.782;2024-02-23T12:05:02;0.68;;;0.32;;
85303;SDS011;75708;47.930;13.782;2024-02-23T12:07:31;0.35;;;0.10;;
85303;SDS011;75708;47.930;13.782;2024-02-23T12:09:58;0.60;;;0.20;;
85303;SDS011;75708;47.930;13.782;2024-02-23T12:12:25;0.20;;;0.10;;
85303;SDS011;75708;47.930;13.782;2024-02-23T12:14:51;0.10;;;0.10;;
85303;SDS011;75708;47.930;13.782;2024-02-23T12:17:17;0.20;;;0.10;;
85303;SDS011;75708;47.930;13.782;2024-02-23T12:19:42;0.50;;;0.20;;
85303;SDS011;75708;47.930;13.782;2024-02-23T12:22:08;1.00;;;0.43;;
85303;SDS011;75708;47.930;13.782;2024-02-23T12:24:35;0.50;;;0.25;;
85303;SDS011;75708;47.930;13.782;2024-02-23T12:27:01;6.63;;;0.50;;
85303;SDS011;75708;47.930;13.782;2024-02-23T12:29:27;0.35;;;0.15;;
85303;SDS011;75708;47.930;13.782;2024-02-23T12:32:10;3.35;;;0.40;;
85303;SDS011;75708;47.930;13.782;2024-02-23T12:34:36;0.85;;;0.40;;
85303;SDS011;75708;47.930;13.782;2024-02-23T12:37:02;1.13;;;0.30;;
85303;SDS011;75708;47.930;13.782;2024-02-23T12:39:29;2.38;;;0.32;;
85303;SDS011;75708;47.930;13.782;2024-02-23T12:41:54;1.35;;;0.68;;
85303;SDS011;75708;47.930;13.782;2024-02-23T12:44:22;0.40;;;0.10;;
85303;SDS011;75708;47.930;13.782;2024-02-23T12:46:47;0.47;;;0.17;;
85303;SDS011;75708;47.930;13.782;2024-02-23T12:49:13;0.30;;;0.15;;
85303;SDS011;75708;47.930;13.782;2024-02-23T12:51:38;1.42;;;0.20;;
85303;SDS011;75708;47.930;13.782;2024-02-23T12:54:04;2.58;;;0.17;;
85303;SDS011;75708;47.930;13.782;2024-02-23T12:56:29;0.38;;;0.10;;
85303;SDS011;75708;47.930;13.782;2024-02-23T12:58:56;0.38;;;0.20;;
85303;SDS011;75708;47.930;13.782;2024-02-23T13:01:22;0.85;;;0.03;;
85303;SDS011;75708;47.930;13.782;2024-02-23T13:03:47;0.20;;;0.10;;
85303;SDS011;75708;47.930;13.782;2024-02-23T13:06:13;0.60;;;0.25;;
85303;SDS011;75708;47.930;13.782;2024-02-23T13:08:39;1.55;;;0.20;;
85303;SDS011;75708;47.930;13.782;2024-02-23T13:11:05;0.30;;;0.20;;
85303;SDS011;75708;47.930;13.782;2024-02-23T13:13:31;0.30;;;0.10;;
85303;SDS011;75708;47.930;13.782;2024-02-23T13:15:58;0.20;;;0.10;;
85303;SDS011;75708;47.930;13.782;2024-02-23T13:18:23;0.43;;;0.13;;
85303;SDS011;75708;47.930;13.782;2024-02-23T13:20:49;0.22;;;0.10;;
85303;SDS011;75708;47.930;13.782;2024-02-23T13:23:15;0.60;;;0.15;;
85303;SDS011;75708;47.930;13.782;2024-02-23T13:25:41;1.65;;;0.25;;
85303;SDS011;75708;47.930;13.782;2024-02-23T13:28:07;0.90;;;0.30;;
85303;SDS011;75708;47.930;13.782;2024-02-23T13:30:34;1.77;;;0.20;;
85303;SDS011;75708;47.930;13.782;2024-02-23T13:33:00;0.80;;;0.22;;
85303;SDS011;75708;47.930;13.782;2024-02-23T13:35:26;3.17;;;0.88;;
85303;SDS011;75708;47.930;13.782;2024-02-23T13:37:52;1.15;;;0.20;;
85303;SDS011;75708;47.930;13.782;2024-02-23T13:40:18;0.65;;;0.13;;
85303;SDS011;75708;47.930;13.782;2024-02-23T13:42:43;1.33;;;0.25;;
85303;SDS011;75708;47.930;13.782;2024-02-23T13:45:17;0.32;;;0.15;;
85303;SDS011;75708;47.930;13.782;2024-02-23T13:47:44;0.38;;;0.10;;
85303;SDS011;75708;47.930;13.782;2024-02-23T13:50:24;0.30;;;0.10;;
85303;SDS011;75708;47.930;13.782;2024-02-23T13:52:50;0.47;;;0.20;;
85303;SDS011;75708;47.930;13.782;2024-02-23T13:55:17;0.30;;;0.10;;
85303;SDS011;75708;47.930;13.782;2024-02-23T13:57:42;0.20;;;0.10;;
85303;SDS011;75708;47.930;13.782;2024-02-23T14:00:08;0.98;;;0.20;;
85303;SDS011;75708;47.930;13.782;2024-02-23T14:02:37;0.43;;;0.13;;
85303;SDS011;75708;47.930;13.782;2024-02-23T14:05:05;0.52;;;0.20;;
85303;SDS011;75708;47.930;13.782;2024-02-23T14:07:33;0.20;;;0.10;;
85303;SDS011;75708;47.930;13.782;2024-02-23T14:09:59;0.20;;;0.10;;
85303;SDS011;75708;47.930;13.782;2024-02-23T14:12:25;0.08;;;0.00;;
85303;SDS011;75708;47.930;13.782;2024-02-23T14:14:51;1.02;;;0.20;;
85303;SDS011;75708;47.930;13.782;2024-02-23T14:17:16;0.43;;;0.10;;
85303;SDS011;75708;47.930;13.782;2024-02-23T14:19:42;0.73;;;0.20;;
85303;SDS011;75708;47.930;13.782;2024-02-23T14:22:07;0.40;;;0.25;;
85303;SDS011;75708;47.930;13.782;2024-02-23T14:24:33;0.82;;;0.35;;
85303;SDS011;75708;47.930;13.782;2024-02-23T14:26:58;0.20;;;0.10;;
85303;SDS011;75708;47.930;13.782;2024-02-23T14:29:24;0.17;;;0.10;;
85303;SDS011;75708;47.930;13.782;2024-02-23T14:31:49;1.30;;;0.40;;
85303;SDS011;75708;47.930;13.782;2024-02-23T14:34:15;0.22;;;0.10;;